Time;durP1;ratioP1;P1;durP2;ratioP2;P2;SDS_P1;SDS_P2;PMS_P1;PMS_P2;Temp;Humidity;BMP_temperature;BMP_pressure;BME280_temperature;BME280_humidity;BME280_pressure;Samples;Min_cycle;Max_cycle;Signal;HPM_P1;HPM_P2
2022/07/02 00:00:38;;;;;;;;;4.33;4.33;;;;;;;;4876278;29;45532;-72
2022/07/02 00:03:04;;;;;;;;;4.00;4.00;;;;;;;;4880125;29;45285;-72
2022/07/02 00:05:31;;;;;;;;;3.33;3.33;;;;;;;;4880756;29;45307;-72
2022/07/02 00:07:56;;;;;;;;;5.00;3.67;;;;;;;;4885817;29;45467;-72
2022/07/02 00:10:22;;;;;;;;;3.00;3.00;;;;;;;;4889176;29;45374;-72
2022/07/02 00:12:47;;;;;;;;;4.33;4.33;;;;;;;;4889652;29;45239;-72
2022/07/02 00:15:14;;;;;;;;;5.00;4.00;;;;;;;;4884844;28;45526;-72
2022/07/02 00:17:39;;;;;;;;;5.33;5.33;;;;;;;;4896529;28;45426;-72
2022/07/02 00:20:05;;;;;;;;;6.00;5.00;;;;;;;;4889099;28;45658;-72
2022/07/02 00:22:32;;;;;;;;;5.00;4.00;;;;;;;;4874104;29;45202;-72
2022/07/02 00:24:57;;;;;;;;;4.00;4.00;;;;;;;;4869062;29;45364;-72
2022/07/02 00:27:23;;;;;;;;;4.00;4.00;;;;;;;;4876552;29;45535;-72
2022/07/02 00:29:48;;;;;;;;;8.00;6.00;;;;;;;;4879835;29;47188;-72
2022/07/02 00:32:13;;;;;;;;;7.00;5.33;;;;;;;;4873497;29;45346;-72
2022/07/02 00:34:39;;;;;;;;;5.00;5.00;;;;;;;;4885656;29;45534;-72
2022/07/02 00:37:06;;;;;;;;;6.00;6.00;;;;;;;;4884837;29;45793;-72
2022/07/02 00:39:31;;;;;;;;;0.00;0.00;;;;;;;;4889028;29;47310;-72
2022/07/02 00:41:58;;;;;;;;;5.33;5.00;;;;;;;;4891772;29;45249;-71
2022/07/02 00:44:23;;;;;;;;;4.00;4.00;;;;;;;;4893662;29;45233;-71
2022/07/02 00:46:49;;;;;;;;;5.00;5.00;;;;;;;;4888684;29;46217;-72
2022/07/02 00:49:15;;;;;;;;;5.33;4.00;;;;;;;;4895554;29;47152;-71
2022/07/02 00:51:40;;;;;;;;;5.00;5.00;;;;;;;;4886613;28;45246;-72
2022/07/02 00:54:06;;;;;;;;;4.67;4.67;;;;;;;;4897584;28;45257;-71
2022/07/02 00:56:32;;;;;;;;;6.33;4.33;;;;;;;;4879687;29;45543;-71
2022/07/02 00:58:57;;;;;;;;;5.00;5.00;;;;;;;;4895130;29;45388;-71
2022/07/02 01:01:22;;;;;;;;;3.00;3.00;;;;;;;;4878286;29;45348;-71
2022/07/02 01:03:49;;;;;;;;;5.00;4.33;;;;;;;;4889921;29;45337;-71
2022/07/02 01:06:16;;;;;;;;;3.33;3.00;;;;;;;;4890558;29;45593;-71
2022/07/02 01:11:26;;;;;;;;;1.00;1.00;;;;;;;;4878741;29;45334;-71
2022/07/02 01:13:53;;;;;;;;;3.67;3.00;;;;;;;;4889131;29;45368;-71
2022/07/02 01:16:19;;;;;;;;;3.00;3.00;;;;;;;;4879483;29;46656;-71
2022/07/02 01:18:44;;;;;;;;;4.33;4.00;;;;;;;;4891736;29;45364;-71
2022/07/02 01:21:09;;;;;;;;;3.00;3.00;;;;;;;;4880300;28;45204;-72
2022/07/02 01:23:34;;;;;;;;;7.00;4.00;;;;;;;;4893411;29;45502;-73
2022/07/02 01:26:00;;;;;;;;;3.67;3.00;;;;;;;;4880792;29;45383;-72
2022/07/02 01:28:25;;;;;;;;;3.00;2.00;;;;;;;;4884096;28;45301;-72
2022/07/02 01:30:51;;;;;;;;;3.00;3.00;;;;;;;;4876831;29;45265;-72
2022/07/02 01:33:16;;;;;;;;;4.00;4.00;;;;;;;;4877490;29;45480;-72
2022/07/02 01:35:42;;;;;;;;;4.33;3.33;;;;;;;;4879266;29;44925;-72
2022/07/02 01:38:07;;;;;;;;;4.33;3.00;;;;;;;;4881224;29;46162;-73
2022/07/02 01:40:32;;;;;;;;;4.00;4.00;;;;;;;;4878697;29;45478;-72
2022/07/02 01:42:57;;;;;;;;;3.33;3.33;;;;;;;;4886100;28;45252;-72
2022/07/02 01:45:23;;;;;;;;;2.67;1.00;;;;;;;;4880471;29;45648;-72
2022/07/02 01:47:48;;;;;;;;;8.00;5.00;;;;;;;;4900728;28;45616;-72
2022/07/02 01:50:13;;;;;;;;;4.00;4.00;;;;;;;;4892935;28;45464;-72
2022/07/02 01:52:38;;;;;;;;;5.00;3.00;;;;;;;;4883040;29;45305;-72
2022/07/02 01:55:04;;;;;;;;;9.33;6.00;;;;;;;;4888444;29;45441;-72
2022/07/02 01:57:33;;;;;;;;;5.00;4.00;;;;;;;;4890580;28;45359;-72
2022/07/02 01:59:58;;;;;;;;;3.67;3.67;;;;;;;;4891196;29;45229;-72
2022/07/02 02:02:24;;;;;;;;;5.00;4.00;;;;;;;;4892127;28;45461;-72
2022/07/02 02:04:49;;;;;;;;;5.00;5.00;;;;;;;;4897124;28;45208;-72
2022/07/02 02:07:14;;;;;;;;;4.67;4.67;;;;;;;;4887198;28;45201;-72
2022/07/02 02:09:39;;;;;;;;;6.00;4.00;;;;;;;;4884748;29;45408;-73
2022/07/02 02:12:05;;;;;;;;;7.00;4.33;;;;;;;;4877573;29;45476;-72
2022/07/02 02:14:30;;;;;;;;;2.33;2.33;;;;;;;;4886808;29;45402;-72
2022/07/02 02:16:56;;;;;;;;;4.67;4.33;;;;;;;;4882926;28;45367;-72
2022/07/02 02:19:21;;;;;;;;;6.00;6.00;;;;;;;;4893546;29;45497;-72
2022/07/02 02:21:46;;;;;;;;;6.00;5.00;;;;;;;;4888734;29;45308;-72
2022/07/02 02:24:11;;;;;;;;;4.33;4.33;;;;;;;;4902519;28;45532;-72
2022/07/02 02:26:36;;;;;;;;;9.00;4.00;;;;;;;;4889578;29;46473;-72
2022/07/02 02:29:02;;;;;;;;;6.00;5.67;;;;;;;;4891338;29;45387;-72
2022/07/02 02:31:27;;;;;;;;;5.00;4.00;;;;;;;;4877228;29;45395;-72
2022/07/02 02:33:52;;;;;;;;;6.00;4.00;;;;;;;;4881825;29;45538;-72
2022/07/02 02:36:17;;;;;;;;;6.00;5.00;;;;;;;;4882324;28;45336;-72
2022/07/02 02:38:46;;;;;;;;;3.00;3.00;;;;;;;;4892277;29;45438;-72
2022/07/02 02:41:11;;;;;;;;;5.00;3.67;;;;;;;;4885508;29;45328;-72
2022/07/02 02:43:37;;;;;;;;;5.00;4.00;;;;;;;;4885552;29;45520;-72
2022/07/02 02:46:03;;;;;;;;;6.00;6.00;;;;;;;;4889342;28;45331;-72
2022/07/02 02:48:28;;;;;;;;;4.00;4.00;;;;;;;;4889156;29;45510;-72
2022/07/02 02:50:54;;;;;;;;;6.33;6.00;;;;;;;;4884349;29;45508;-72
2022/07/02 02:53:19;;;;;;;;;5.67;5.67;;;;;;;;4900794;29;45352;-72
2022/07/02 02:55:44;;;;;;;;;8.33;5.00;;;;;;;;4891777;28;45548;-72
2022/07/02 02:58:10;;;;;;;;;4.67;4.33;;;;;;;;4883988;29;45269;-72
2022/07/02 03:00:35;;;;;;;;;9.00;6.00;;;;;;;;4887328;28;45423;-72
2022/07/02 03:03:00;;;;;;;;;4.00;4.00;;;;;;;;4893050;29;46120;-72
2022/07/02 03:05:25;;;;;;;;;4.00;4.00;;;;;;;;4888610;28;46441;-72
2022/07/02 03:07:51;;;;;;;;;7.00;6.00;;;;;;;;4875835;29;45281;-72
2022/07/02 03:10:16;;;;;;;;;5.00;5.00;;;;;;;;4888181;28;45522;-72
2022/07/02 03:12:41;;;;;;;;;6.00;6.00;;;;;;;;4880234;29;45137;-72
2022/07/02 03:15:07;;;;;;;;;5.00;3.00;;;;;;;;4883352;29;47019;-72
2022/07/02 03:17:32;;;;;;;;;8.33;4.33;;;;;;;;4885549;29;45306;-72
2022/07/02 03:19:57;;;;;;;;;6.33;5.00;;;;;;;;4885770;28;45471;-72
2022/07/02 03:22:22;;;;;;;;;7.00;5.00;;;;;;;;4882435;29;45539;-73
2022/07/02 03:24:47;;;;;;;;;5.00;5.00;;;;;;;;4886804;29;45616;-72
2022/07/02 03:27:13;;;;;;;;;7.00;5.33;;;;;;;;4889821;29;45341;-72
2022/07/02 03:29:38;;;;;;;;;6.33;6.33;;;;;;;;4890141;29;45316;-72
2022/07/02 03:32:03;;;;;;;;;6.67;5.00;;;;;;;;4883432;29;45340;-72
2022/07/02 03:34:28;;;;;;;;;4.33;4.33;;;;;;;;4896346;29;46819;-72
2022/07/02 03:36:54;;;;;;;;;5.00;5.00;;;;;;;;4887957;29;45317;-72
2022/07/02 03:39:19;;;;;;;;;6.00;5.00;;;;;;;;4896980;29;45301;-72
2022/07/02 03:41:44;;;;;;;;;5.33;5.00;;;;;;;;4883138;29;45312;-72
2022/07/02 03:44:09;;;;;;;;;6.00;6.00;;;;;;;;4898474;28;45716;-72
2022/07/02 03:46:34;;;;;;;;;5.67;4.67;;;;;;;;4880379;29;45445;-72
2022/07/02 03:49:00;;;;;;;;;7.00;6.00;;;;;;;;4901272;28;45361;-72
2022/07/02 03:51:25;;;;;;;;;9.00;5.33;;;;;;;;4879965;28;45577;-72
2022/07/02 03:53:50;;;;;;;;;6.67;5.00;;;;;;;;4884813;29;45459;-72
2022/07/02 03:56:16;;;;;;;;;6.00;6.00;;;;;;;;4876249;29;45322;-72
2022/07/02 03:58:41;;;;;;;;;7.00;5.67;;;;;;;;4888531;29;45294;-72
2022/07/02 04:01:07;;;;;;;;;9.00;6.00;;;;;;;;4884112;29;46136;-72
2022/07/02 04:03:32;;;;;;;;;7.00;6.00;;;;;;;;4892419;29;45557;-72
2022/07/02 04:05:57;;;;;;;;;7.33;6.67;;;;;;;;4881353;28;45527;-72
2022/07/02 04:08:23;;;;;;;;;8.00;5.67;;;;;;;;4893662;29;45277;-72
2022/07/02 04:10:48;;;;;;;;;4.67;4.67;;;;;;;;4883780;28;45498;-72
2022/07/02 04:13:13;;;;;;;;;7.33;6.33;;;;;;;;4888348;29;45487;-72
2022/07/02 04:15:38;;;;;;;;;7.00;5.67;;;;;;;;4880594;29;45361;-72
2022/07/02 04:18:04;;;;;;;;;8.00;6.33;;;;;;;;4892260;29;45411;-72
2022/07/02 04:20:29;;;;;;;;;5.67;5.67;;;;;;;;4886492;28;45415;-72
2022/07/02 04:22:54;;;;;;;;;7.00;6.00;;;;;;;;4895202;29;46291;-72
2022/07/02 04:25:19;;;;;;;;;7.67;6.00;;;;;;;;4880991;28;45556;-72
2022/07/02 04:27:45;;;;;;;;;5.00;5.00;;;;;;;;4887422;29;45200;-72
2022/07/02 04:30:10;;;;;;;;;7.00;6.00;;;;;;;;4878027;29;45286;-72
2022/07/02 04:32:36;;;;;;;;;8.00;6.00;;;;;;;;4877950;29;46128;-72
2022/07/02 04:35:01;;;;;;;;;7.33;6.67;;;;;;;;4880404;29;45436;-72
2022/07/02 04:37:26;;;;;;;;;6.00;6.00;;;;;;;;4882431;29;45252;-73
2022/07/02 04:39:51;;;;;;;;;5.33;5.00;;;;;;;;4883179;28;45463;-72
2022/07/02 04:42:16;;;;;;;;;6.00;6.00;;;;;;;;4884537;29;45354;-72
2022/07/02 04:44:42;;;;;;;;;7.00;6.00;;;;;;;;4884302;29;45449;-72
2022/07/02 04:47:07;;;;;;;;;6.33;6.33;;;;;;;;4885111;29;45464;-72
2022/07/02 04:49:32;;;;;;;;;5.33;4.67;;;;;;;;4891124;29;45682;-72
2022/07/02 04:51:58;;;;;;;;;9.00;8.00;;;;;;;;4884467;29;45653;-72
2022/07/02 04:54:23;;;;;;;;;9.00;7.00;;;;;;;;4895074;28;45421;-72
2022/07/02 04:56:48;;;;;;;;;7.00;5.67;;;;;;;;4885458;29;45481;-72
2022/07/02 04:59:14;;;;;;;;;10.33;8.00;;;;;;;;4898685;28;45315;-72
2022/07/02 05:01:39;;;;;;;;;9.67;7.00;;;;;;;;4886217;29;46294;-72
2022/07/02 05:04:04;;;;;;;;;8.00;7.33;;;;;;;;4894340;29;45357;-72
2022/07/02 05:06:29;;;;;;;;;7.67;7.67;;;;;;;;4880765;29;45491;-72
2022/07/02 05:08:55;;;;;;;;;7.67;6.67;;;;;;;;4885541;29;45382;-71
2022/07/02 05:11:20;;;;;;;;;9.67;9.00;;;;;;;;4875020;29;45473;-72
2022/07/02 05:13:45;;;;;;;;;14.67;8.00;;;;;;;;4886934;29;45324;-73
2022/07/02 05:16:11;;;;;;;;;9.67;8.67;;;;;;;;4891482;29;45447;-73
2022/07/02 05:18:36;;;;;;;;;10.67;10.00;;;;;;;;4901249;28;45639;-72
2022/07/02 05:21:01;;;;;;;;;9.33;7.00;;;;;;;;4880289;29;45467;-72
2022/07/02 05:23:27;;;;;;;;;8.00;7.33;;;;;;;;4895398;29;45271;-72
2022/07/02 05:25:52;;;;;;;;;10.00;8.33;;;;;;;;4890301;29;45517;-73
2022/07/02 05:28:17;;;;;;;;;7.33;7.00;;;;;;;;4896358;28;45625;-72
2022/07/02 05:30:43;;;;;;;;;7.67;7.67;;;;;;;;4883920;29;45372;-72
2022/07/02 05:33:08;;;;;;;;;9.00;9.00;;;;;;;;4897721;28;45316;-72
2022/07/02 05:35:33;;;;;;;;;7.67;7.67;;;;;;;;4888075;28;45653;-73
2022/07/02 05:37:58;;;;;;;;;9.67;8.67;;;;;;;;4886112;29;46060;-72
2022/07/02 05:40:24;;;;;;;;;9.00;8.00;;;;;;;;4881722;29;47329;-73
2022/07/02 05:42:49;;;;;;;;;10.00;9.00;;;;;;;;4889158;29;45328;-72
2022/07/02 05:45:14;;;;;;;;;9.33;9.33;;;;;;;;4884455;29;45272;-72
2022/07/02 05:47:39;;;;;;;;;12.33;11.00;;;;;;;;4886640;29;45233;-73
2022/07/02 05:50:05;;;;;;;;;13.00;9.00;;;;;;;;4887759;29;45479;-73
2022/07/02 05:52:30;;;;;;;;;11.00;9.67;;;;;;;;4890194;28;45428;-72
2022/07/02 05:54:55;;;;;;;;;12.00;11.00;;;;;;;;4892300;29;45205;-72
2022/07/02 05:57:21;;;;;;;;;12.00;12.00;;;;;;;;4892958;28;45911;-73
2022/07/02 05:59:46;;;;;;;;;14.33;12.33;;;;;;;;4894081;28;45473;-72
2022/07/02 06:02:11;;;;;;;;;10.33;9.33;;;;;;;;4900486;28;45225;-73
2022/07/02 06:04:36;;;;;;;;;9.67;9.33;;;;;;;;4899315;28;45141;-73
2022/07/02 06:09:46;;;;;;;;;1.00;1.00;;;;;;;;4898305;29;45779;-72
2022/07/02 06:12:11;;;;;;;;;14.00;11.00;;;;;;;;4898875;29;45280;-72
2022/07/02 06:14:36;;;;;;;;;9.33;9.33;;;;;;;;4899216;28;45230;-72
2022/07/02 06:17:01;;;;;;;;;15.00;12.33;;;;;;;;4897679;28;45165;-72
2022/07/02 06:19:26;;;;;;;;;10.33;9.00;;;;;;;;4901554;28;45463;-71
2022/07/02 06:21:52;;;;;;;;;12.67;12.00;;;;;;;;4897352;29;45276;-72
2022/07/02 06:24:17;;;;;;;;;8.67;8.67;;;;;;;;4901700;28;45222;-72
2022/07/02 06:26:42;;;;;;;;;13.00;10.67;;;;;;;;4897098;29;45432;-72
2022/07/02 06:29:08;;;;;;;;;11.00;11.00;;;;;;;;4901369;28;45275;-73
2022/07/02 06:31:33;;;;;;;;;11.00;9.67;;;;;;;;4896499;28;45309;-74
2022/07/02 06:33:58;;;;;;;;;11.67;11.33;;;;;;;;4897706;29;45490;-75
2022/07/02 06:36:24;;;;;;;;;12.67;9.33;;;;;;;;4883491;28;45640;-74
2022/07/02 06:38:49;;;;;;;;;10.00;9.00;;;;;;;;4890344;29;45467;-73
2022/07/02 06:43:59;;;;;;;;;5.67;5.67;;;;;;;;4890978;29;45305;-73
2022/07/02 06:46:24;;;;;;;;;10.00;9.00;;;;;;;;4883906;28;46225;-74
2022/07/02 06:48:49;;;;;;;;;9.33;9.33;;;;;;;;4891891;29;46422;-73
2022/07/02 06:51:14;;;;;;;;;12.00;10.00;;;;;;;;4880572;29;45440;-73
2022/07/02 06:53:39;;;;;;;;;12.00;11.00;;;;;;;;4896074;28;45391;-72
2022/07/02 06:56:05;;;;;;;;;9.00;8.67;;;;;;;;4894980;28;45566;-72
2022/07/02 06:58:30;;;;;;;;;8.33;8.00;;;;;;;;4883472;29;45488;-72
2022/07/02 07:00:55;;;;;;;;;4.67;4.67;;;;;;;;4889607;28;45331;-72
2022/07/02 07:03:20;;;;;;;;;6.00;5.33;;;;;;;;4892257;29;45311;-72
2022/07/02 07:05:47;;;;;;;;;5.67;4.67;;;;;;;;4898236;28;45459;-72
2022/07/02 07:08:12;;;;;;;;;4.33;4.33;;;;;;;;4871828;29;46554;-72
2022/07/02 07:10:37;;;;;;;;;4.33;4.33;;;;;;;;4895279;29;45292;-72
2022/07/02 07:13:03;;;;;;;;;3.67;3.00;;;;;;;;4884139;29;45537;-72
2022/07/02 07:15:28;;;;;;;;;5.00;4.00;;;;;;;;4887368;29;45418;-73
2022/07/02 07:17:54;;;;;;;;;4.00;4.00;;;;;;;;4885743;29;45380;-73
2022/07/02 07:20:26;;;;;;;;;3.00;3.00;;;;;;;;4893060;28;45169;-72
2022/07/02 07:22:52;;;;;;;;;4.67;3.00;;;;;;;;4890237;29;45379;-73
2022/07/02 07:25:17;;;;;;;;;4.00;2.00;;;;;;;;4896820;28;45872;-72
2022/07/02 07:27:42;;;;;;;;;2.00;2.00;;;;;;;;4880482;28;45363;-73
2022/07/02 07:30:07;;;;;;;;;2.00;2.00;;;;;;;;4884288;29;45423;-73
2022/07/02 07:32:33;;;;;;;;;2.00;2.00;;;;;;;;4880465;29;45565;-74
2022/07/02 07:34:58;;;;;;;;;1.50;1.25;;;;;;;;4893614;29;45237;-73
2022/07/02 07:37:23;;;;;;;;;2.00;2.00;;;;;;;;4881530;28;45393;-73
2022/07/02 07:39:48;;;;;;;;;2.00;2.00;;;;;;;;4893600;28;45375;-74
2022/07/02 07:42:14;;;;;;;;;1.00;0.75;;;;;;;;4902452;28;45185;-74
2022/07/02 07:44:39;;;;;;;;;1.75;1.75;;;;;;;;4887741;28;45407;-74
2022/07/02 07:47:05;;;;;;;;;0.75;0.75;;;;;;;;4893015;29;46273;-73
2022/07/02 07:49:30;;;;;;;;;0.75;0.50;;;;;;;;4890126;28;45350;-73
2022/07/02 07:51:55;;;;;;;;;1.00;1.00;;;;;;;;4889761;29;45331;-74
2022/07/02 07:54:20;;;;;;;;;1.00;1.00;;;;;;;;4884089;29;45480;-74
2022/07/02 07:56:45;;;;;;;;;0.50;0.50;;;;;;;;4901651;29;46648;-74
2022/07/02 07:59:11;;;;;;;;;1.00;1.00;;;;;;;;4886282;28;45361;-74
2022/07/02 08:01:36;;;;;;;;;0.75;0.75;;;;;;;;4886329;29;45269;-73
2022/07/02 08:04:01;;;;;;;;;1.00;1.00;;;;;;;;4885824;28;45339;-74
2022/07/02 08:06:27;;;;;;;;;0.00;0.00;;;;;;;;4886880;29;45436;-74
2022/07/02 08:08:52;;;;;;;;;2.00;1.00;;;;;;;;4891059;28;45404;-74
2022/07/02 08:11:17;;;;;;;;;0.00;0.00;;;;;;;;4884657;29;45227;-74
2022/07/02 08:13:42;;;;;;;;;1.75;1.75;;;;;;;;4891098;28;45401;-74
2022/07/02 08:16:07;;;;;;;;;0.75;0.75;;;;;;;;4876542;29;46392;-74
2022/07/02 08:18:33;;;;;;;;;0.75;0.75;;;;;;;;4881682;28;45398;-74
2022/07/02 08:20:59;;;;;;;;;0.00;0.00;;;;;;;;4878246;29;45339;-73
2022/07/02 08:23:24;;;;;;;;;0.20;0.20;;;;;;;;4883200;29;46204;-73
2022/07/02 08:25:49;;;;;;;;;0.75;0.75;;;;;;;;4878549;29;45636;-74
2022/07/02 08:28:15;;;;;;;;;1.00;1.00;;;;;;;;4889311;29;45286;-73
2022/07/02 08:30:40;;;;;;;;;0.00;0.00;;;;;;;;4874533;29;45331;-74
2022/07/02 08:33:05;;;;;;;;;1.00;1.00;;;;;;;;4893506;28;45716;-74
2022/07/02 08:35:31;;;;;;;;;2.00;0.75;;;;;;;;4877627;29;45423;-74
2022/07/02 08:37:56;;;;;;;;;0.25;0.25;;;;;;;;4896298;29;45381;-77
2022/07/02 08:40:23;;;;;;;;;1.00;0.00;;;;;;;;4882240;29;45385;-74
2022/07/02 08:42:49;;;;;;;;;0.00;0.00;;;;;;;;4901150;28;45305;-75
2022/07/02 08:45:14;;;;;;;;;0.75;0.50;;;;;;;;4883518;29;46405;-76
2022/07/02 08:47:40;;;;;;;;;0.00;0.00;;;;;;;;4900061;29;45383;-76
2022/07/02 08:50:07;;;;;;;;;0.00;0.00;;;;;;;;4876396;28;45527;-77
2022/07/02 08:52:32;;;;;;;;;1.00;0.20;;;;;;;;4896911;29;46849;-77
2022/07/02 08:54:57;;;;;;;;;2.75;1.00;;;;;;;;4881936;29;45501;-76
2022/07/02 08:57:22;;;;;;;;;1.25;1.25;;;;;;;;4891152;29;45463;-77
2022/07/02 08:59:48;;;;;;;;;0.00;0.00;;;;;;;;4876073;29;45447;-77
2022/07/02 09:02:14;;;;;;;;;2.50;0.75;;;;;;;;4894856;29;45515;-77
2022/07/02 09:04:42;;;;;;;;;0.00;0.00;;;;;;;;4882244;29;48200;-77
2022/07/02 09:07:07;;;;;;;;;0.00;0.00;;;;;;;;4895994;28;45407;-77
2022/07/02 09:09:33;;;;;;;;;0.00;0.00;;;;;;;;4885144;29;45201;-77
2022/07/02 09:11:58;;;;;;;;;0.25;0.25;;;;;;;;4896986;28;45246;-76
2022/07/02 09:14:23;;;;;;;;;0.00;0.00;;;;;;;;4883851;29;48367;-76
2022/07/02 09:16:49;;;;;;;;;1.00;0.00;;;;;;;;4898141;29;45172;-77
2022/07/02 09:19:15;;;;;;;;;0.25;0.25;;;;;;;;4887682;28;45278;-76
2022/07/02 09:21:48;;;;;;;;;0.00;0.00;;;;;;;;4881449;29;45225;-76
2022/07/02 09:24:13;;;;;;;;;0.00;0.00;;;;;;;;4884484;29;46671;-76
2022/07/02 09:26:39;;;;;;;;;0.00;0.00;;;;;;;;4899895;28;45418;-76
2022/07/02 09:29:04;;;;;;;;;0.00;0.00;;;;;;;;4885646;29;45591;-76
2022/07/02 09:31:46;;;;;;;;;0.00;0.00;;;;;;;;4886291;29;45314;-76
2022/07/02 09:34:22;;;;;;;;;1.20;0.00;;;;;;;;4883889;29;45515;-76
2022/07/02 09:36:47;;;;;;;;;0.00;0.00;;;;;;;;4886478;29;45296;-76
2022/07/02 09:39:12;;;;;;;;;2.75;1.00;;;;;;;;4887784;29;45645;-75
2022/07/02 09:41:42;;;;;;;;;0.00;0.00;;;;;;;;4888661;29;45617;-75
2022/07/02 09:44:11;;;;;;;;;0.20;0.20;;;;;;;;4892428;29;47079;-75
2022/07/02 09:46:36;;;;;;;;;0.00;0.00;;;;;;;;4891377;29;45305;-76
2022/07/02 09:49:06;;;;;;;;;0.00;0.00;;;;;;;;4891485;29;45269;-76
2022/07/02 09:51:31;;;;;;;;;0.00;0.00;;;;;;;;4882218;29;45282;-76
2022/07/02 09:53:56;;;;;;;;;2.50;1.50;;;;;;;;4887750;29;47641;-76
2022/07/02 09:56:23;;;;;;;;;0.25;0.25;;;;;;;;4897422;28;45310;-75
2022/07/02 09:58:49;;;;;;;;;0.00;0.00;;;;;;;;4890785;29;45460;-75
2022/07/02 10:01:18;;;;;;;;;0.00;0.00;;;;;;;;4879614;29;46068;-76
2022/07/02 10:03:54;;;;;;;;;7.60;6.20;;;;;;;;4890133;29;45625;-76
2022/07/02 10:06:20;;;;;;;;;0.00;0.00;;;;;;;;4889008;29;45302;-75
2022/07/02 10:08:45;;;;;;;;;0.00;0.00;;;;;;;;4889166;28;45323;-76
2022/07/02 10:11:12;;;;;;;;;0.00;0.00;;;;;;;;4889252;29;45351;-76
2022/07/02 10:13:37;;;;;;;;;1.20;0.00;;;;;;;;4892453;28;46589;-77
2022/07/02 10:16:04;;;;;;;;;0.25;0.00;;;;;;;;4888698;29;45250;-77
2022/07/02 10:18:29;;;;;;;;;0.20;0.20;;;;;;;;4896475;28;45367;-77
2022/07/02 10:20:56;;;;;;;;;0.00;0.00;;;;;;;;4875994;29;45613;-77
2022/07/02 10:23:22;;;;;;;;;0.00;0.00;;;;;;;;4886652;28;45267;-77
2022/07/02 10:25:48;;;;;;;;;0.50;0.50;;;;;;;;4877290;29;45240;-77
2022/07/02 10:28:13;;;;;;;;;0.00;0.00;;;;;;;;4888535;28;45208;-76
2022/07/02 10:30:40;;;;;;;;;0.00;0.00;;;;;;;;4877267;29;46218;-75
2022/07/02 10:33:17;;;;;;;;;1.00;0.00;;;;;;;;4892317;29;48494;-76
2022/07/02 10:35:42;;;;;;;;;0.00;0.00;;;;;;;;4884217;29;45308;-76
2022/07/02 10:38:08;;;;;;;;;0.00;0.00;;;;;;;;4893934;28;45536;-76
2022/07/02 10:40:44;;;;;;;;;0.00;0.00;;;;;;;;4884297;29;45495;-75
2022/07/02 10:43:13;;;;;;;;;0.00;0.00;;;;;;;;4895597;28;45510;-75
2022/07/02 10:45:38;;;;;;;;;0.00;0.00;;;;;;;;4888090;29;45282;-75
2022/07/02 10:48:04;;;;;;;;;0.00;0.00;;;;;;;;4896904;29;45442;-76
2022/07/02 10:50:35;;;;;;;;;0.60;0.00;;;;;;;;4879460;29;45524;-76
2022/07/02 10:53:09;;;;;;;;;0.00;0.00;;;;;;;;4886310;29;46556;-75
2022/07/02 10:55:35;;;;;;;;;0.20;0.20;;;;;;;;4884403;29;45668;-75
2022/07/02 10:58:02;;;;;;;;;0.00;0.00;;;;;;;;4888922;29;45348;-78
2022/07/02 11:00:36;;;;;;;;;0.20;0.00;;;;;;;;4880451;29;45501;-75
2022/07/02 11:03:20;;;;;;;;;0.20;0.20;;;;;;;;4884088;29;45341;-75
2022/07/02 11:05:59;;;;;;;;;0.00;0.00;;;;;;;;4886436;29;45370;-75
2022/07/02 11:08:27;;;;;;;;;0.00;0.00;;;;;;;;4890533;29;45291;-74
2022/07/02 11:10:52;;;;;;;;;0.00;0.00;;;;;;;;4884559;29;45435;-73
2022/07/02 11:13:17;;;;;;;;;0.00;0.00;;;;;;;;4893518;29;45281;-77
2022/07/02 11:15:43;;;;;;;;;0.00;0.00;;;;;;;;4885186;29;45416;-78
2022/07/02 11:18:09;;;;;;;;;0.00;0.00;;;;;;;;4894844;29;45986;-76
2022/07/02 11:20:35;;;;;;;;;1.00;1.00;;;;;;;;4885128;29;45388;-75
2022/07/02 11:23:00;;;;;;;;;0.00;0.00;;;;;;;;4886341;29;45338;-75
2022/07/02 11:25:28;;;;;;;;;0.00;0.00;;;;;;;;4887248;29;45455;-75
2022/07/02 11:27:54;;;;;;;;;0.00;0.00;;;;;;;;4896175;29;45260;-75
2022/07/02 11:30:23;;;;;;;;;1.00;0.00;;;;;;;;4878844;29;45664;-78
2022/07/02 11:32:48;;;;;;;;;0.40;0.00;;;;;;;;4898702;29;46699;-76
2022/07/02 11:35:16;;;;;;;;;0.00;0.00;;;;;;;;4879508;28;45407;-74
2022/07/02 11:37:43;;;;;;;;;0.20;0.00;;;;;;;;4895825;29;45317;-76
2022/07/02 11:40:17;;;;;;;;;0.00;0.00;;;;;;;;4871990;29;45453;-75
2022/07/02 11:42:42;;;;;;;;;0.20;0.20;;;;;;;;4874679;29;45447;-76
2022/07/02 11:45:07;;;;;;;;;0.00;0.00;;;;;;;;4884605;29;45643;-75
2022/07/02 11:47:41;;;;;;;;;0.00;0.00;;;;;;;;4893678;29;45435;-75
2022/07/02 11:50:06;;;;;;;;;0.00;0.00;;;;;;;;4876228;28;45458;-75
2022/07/02 11:52:31;;;;;;;;;0.00;0.00;;;;;;;;4888920;28;46143;-74
2022/07/02 11:54:57;;;;;;;;;2.75;2.25;;;;;;;;4883304;29;45452;-75
2022/07/02 11:57:31;;;;;;;;;1.75;1.75;;;;;;;;4889525;28;45449;-77
2022/07/02 11:59:56;;;;;;;;;2.40;0.80;;;;;;;;4879046;29;45563;-77
2022/07/02 12:02:21;;;;;;;;;0.00;0.00;;;;;;;;4891159;29;46426;-74
2022/07/02 12:04:47;;;;;;;;;2.00;1.25;;;;;;;;4882919;29;45317;-74
2022/07/02 12:07:13;;;;;;;;;2.60;0.40;;;;;;;;4893718;28;45333;-74
2022/07/02 12:09:39;;;;;;;;;0.00;0.00;;;;;;;;4879663;29;45343;-73
2022/07/02 12:12:04;;;;;;;;;0.80;0.00;;;;;;;;4894454;28;45341;-74
2022/07/02 12:14:30;;;;;;;;;0.25;0.00;;;;;;;;4883447;28;45270;-74
2022/07/02 12:16:55;;;;;;;;;0.00;0.00;;;;;;;;4895442;28;45181;-74
2022/07/02 12:19:27;;;;;;;;;0.00;0.00;;;;;;;;4885210;28;45592;-75
2022/07/02 12:21:52;;;;;;;;;0.00;0.00;;;;;;;;4878360;29;46340;-75
2022/07/02 12:24:22;;;;;;;;;2.25;1.25;;;;;;;;4884437;29;45464;-75
2022/07/02 12:26:49;;;;;;;;;0.00;0.00;;;;;;;;4874958;29;45310;-75
2022/07/02 12:32:09;;;;;;;;;0.40;0.20;;;;;;;;4884838;29;45655;-73
2022/07/02 12:34:46;;;;;;;;;1.00;1.00;;;;;;;;4884686;29;45416;-74
2022/07/02 12:37:27;;;;;;;;;0.40;0.40;;;;;;;;4890394;29;45376;-74
2022/07/02 12:39:58;;;;;;;;;0.00;0.00;;;;;;;;4885106;28;45640;-73
2022/07/02 12:42:23;;;;;;;;;0.80;0.00;;;;;;;;4893394;29;45539;-72
2022/07/02 12:44:49;;;;;;;;;0.00;0.00;;;;;;;;4886416;28;45401;-75
2022/07/02 12:47:21;;;;;;;;;0.50;0.00;;;;;;;;4897177;29;45293;-74
2022/07/02 12:49:53;;;;;;;;;0.00;0.00;;;;;;;;4879748;28;45375;-75
2022/07/02 12:52:19;;;;;;;;;0.00;0.00;;;;;;;;4886213;29;45314;-75
2022/07/02 12:54:44;;;;;;;;;0.00;0.00;;;;;;;;4881406;29;45357;-74
2022/07/02 12:57:16;;;;;;;;;0.00;0.00;;;;;;;;4890884;28;45363;-73
2022/07/02 12:59:42;;;;;;;;;0.20;0.20;;;;;;;;4873014;29;45467;-75
2022/07/02 13:02:09;;;;;;;;;3.00;1.75;;;;;;;;4891654;28;47521;-74
2022/07/02 13:04:34;;;;;;;;;0.20;0.20;;;;;;;;4873240;29;45336;-75
2022/07/02 13:06:59;;;;;;;;;1.00;0.25;;;;;;;;4893223;28;45247;-75
2022/07/02 13:09:24;;;;;;;;;7.75;5.75;;;;;;;;4893199;28;45264;-75
2022/07/02 13:11:50;;;;;;;;;0.00;0.00;;;;;;;;4899639;29;45450;-74
2022/07/02 13:14:15;;;;;;;;;2.00;1.00;;;;;;;;4893194;29;45478;-74
2022/07/02 13:16:40;;;;;;;;;0.00;0.00;;;;;;;;4899528;29;45329;-74
2022/07/02 13:19:05;;;;;;;;;1.00;0.00;;;;;;;;4894618;28;45306;-75
2022/07/02 13:21:30;;;;;;;;;0.00;0.00;;;;;;;;4890024;29;45446;-75
2022/07/02 13:23:56;;;;;;;;;2.00;1.00;;;;;;;;4878754;29;45447;-75
2022/07/02 13:26:21;;;;;;;;;0.00;0.00;;;;;;;;4881623;29;45359;-75
2022/07/02 13:28:46;;;;;;;;;1.00;0.00;;;;;;;;4881559;29;45493;-74
2022/07/02 13:31:11;;;;;;;;;0.00;0.00;;;;;;;;4882474;29;45403;-73
2022/07/02 13:33:36;;;;;;;;;1.00;0.00;;;;;;;;4885283;29;45579;-77
2022/07/02 13:36:02;;;;;;;;;0.00;0.00;;;;;;;;4885954;29;45420;-74
2022/07/02 13:38:27;;;;;;;;;1.00;0.00;;;;;;;;4888870;28;45675;-78
2022/07/02 13:40:53;;;;;;;;;0.00;0.00;;;;;;;;4887546;29;45333;-78
2022/07/02 13:43:18;;;;;;;;;1.00;0.20;;;;;;;;4893003;29;45429;-78
2022/07/02 13:45:43;;;;;;;;;0.00;0.00;;;;;;;;4882381;29;45836;-74
2022/07/02 13:48:09;;;;;;;;;0.00;0.00;;;;;;;;4893102;29;45602;-75
2022/07/02 13:50:34;;;;;;;;;0.00;0.00;;;;;;;;4879006;29;45583;-74
2022/07/02 13:52:59;;;;;;;;;3.50;3.50;;;;;;;;4896917;29;45415;-74
2022/07/02 13:55:25;;;;;;;;;0.80;0.00;;;;;;;;4890206;28;45174;-76
2022/07/02 13:57:51;;;;;;;;;1.50;0.00;;;;;;;;4897787;28;45412;-76
2022/07/02 14:00:16;;;;;;;;;0.00;0.00;;;;;;;;4896218;29;47412;-74
2022/07/02 14:02:42;;;;;;;;;0.25;0.25;;;;;;;;4898361;29;45310;-75
2022/07/02 14:05:07;;;;;;;;;0.00;0.00;;;;;;;;4887434;29;45431;-75
2022/07/02 14:07:33;;;;;;;;;1.00;1.00;;;;;;;;4893182;29;45460;-75
2022/07/02 14:09:58;;;;;;;;;0.00;0.00;;;;;;;;4881582;29;45480;-75
2022/07/02 14:12:23;;;;;;;;;0.25;0.25;;;;;;;;4880006;29;45266;-76
2022/07/02 14:14:50;;;;;;;;;1.00;0.00;;;;;;;;4888177;29;45503;-75
2022/07/02 14:17:15;;;;;;;;;0.80;0.80;;;;;;;;4881990;29;45389;-75
2022/07/02 14:19:40;;;;;;;;;0.00;0.00;;;;;;;;4883750;29;45648;-75
2022/07/02 14:22:05;;;;;;;;;0.00;0.00;;;;;;;;4881366;28;45398;-75
2022/07/02 14:24:30;;;;;;;;;0.00;0.00;;;;;;;;4880849;29;45558;-76
2022/07/02 14:26:56;;;;;;;;;0.00;0.00;;;;;;;;4891845;29;46170;-76
2022/07/02 14:29:21;;;;;;;;;0.00;0.00;;;;;;;;4883751;29;46512;-76
2022/07/02 14:31:48;;;;;;;;;0.00;0.00;;;;;;;;4893865;29;45372;-75
2022/07/02 14:34:14;;;;;;;;;0.00;0.00;;;;;;;;4890270;28;45315;-76
2022/07/02 14:36:39;;;;;;;;;0.00;0.00;;;;;;;;4893861;29;45880;-76
2022/07/02 14:39:04;;;;;;;;;0.00;0.00;;;;;;;;4889937;28;45499;-75
2022/07/02 14:41:32;;;;;;;;;1.00;0.00;;;;;;;;4876403;29;45337;-76
2022/07/02 14:43:58;;;;;;;;;0.80;0.20;;;;;;;;4885754;29;45409;-76